Time;durP1;ratioP1;P1;durP2;ratioP2;P2;SDS_P1;SDS_P2;PMS_P1;PMS_P2;Temp;Humidity;BMP_temperature;BMP_pressure;BME280_temperature;BME280_humidity;BME280_pressure;Samples;Min_cycle;Max_cycle;Signal;HPM_P1;HPM_P2
2022/03/20 00:07:19;;;;;;;6.00;2.80;;;;;;;;;;20921234;28;20045;-58
2022/03/20 00:17:22;;;;;;;8.27;3.38;;;;;;;;;;20919525;28;20053;-61
2022/03/20 00:27:25;;;;;;;12.38;4.82;;;;;;;;;;20917792;28;20124;-61
2022/03/20 00:37:28;;;;;;;10.45;4.50;;;;;;;;;;20916950;28;20049;-58
2022/03/20 00:47:30;;;;;;;10.88;5.25;;;;;;;;;;20916880;28;20052;-60
2022/03/20 00:57:32;;;;;;;13.50;5.15;;;;;;;;;;20917105;28;20472;-56
2022/03/20 01:07:34;;;;;;;16.73;5.93;;;;;;;;;;20915107;28;20081;-56
2022/03/20 01:17:36;;;;;;;13.60;6.43;;;;;;;;;;20915354;28;20049;-61
2022/03/20 01:27:39;;;;;;;14.30;6.78;;;;;;;;;;20913927;28;20049;-61
2022/03/20 01:37:43;;;;;;;17.17;6.75;;;;;;;;;;20913286;28;20049;-61
2022/03/20 01:47:47;;;;;;;14.48;6.22;;;;;;;;;;20912751;28;20045;-62
2022/03/20 01:57:49;;;;;;;21.83;7.40;;;;;;;;;;20912104;28;20444;-61
2022/03/20 02:07:51;;;;;;;17.15;7.65;;;;;;;;;;20911619;28;20052;-61
2022/03/20 02:17:56;;;;;;;18.77;7.65;;;;;;;;;;20912153;28;20052;-61
2022/03/20 02:27:59;;;;;;;;;;;;;;;;;;20927647;28;20444;-60
2022/03/20 02:38:10;;;;;;;18.77;7.22;;;;;;;;;;20927849;28;20373;-60
2022/03/20 02:48:21;;;;;;;13.80;7.13;;;;;;;;;;20926238;28;20053;-61
2022/03/20 02:58:35;;;;;;;;;;;;;;;;;;20926704;28;20076;-60
2022/03/20 03:19:12;;;;;;;19.35;8.10;;;;;;;;;;20924406;28;20099;-60
2022/03/20 03:29:18;;;;;;;14.45;7.50;;;;;;;;;;20923119;28;20155;-60
2022/03/20 03:39:23;;;;;;;18.00;8.77;;;;;;;;;;20922936;28;20451;-60
2022/03/20 03:49:27;;;;;;;16.87;7.40;;;;;;;;;;20922566;28;20045;-59
2022/03/20 03:59:31;;;;;;;17.85;6.80;;;;;;;;;;20922351;28;20049;-62
2022/03/20 04:09:35;;;;;;;16.08;7.82;;;;;;;;;;20921294;28;20057;-62
2022/03/20 04:19:39;;;;;;;14.40;6.13;;;;;;;;;;20919522;28;20057;-62
2022/03/20 04:29:43;;;;;;;17.70;7.00;;;;;;;;;;20919293;28;20048;-61
2022/03/20 04:39:46;;;;;;;16.90;6.65;;;;;;;;;;20917427;28;20060;-61
2022/03/20 05:00:13;;;;;;;14.95;6.05;;;;;;;;;;20916892;28;20063;-61
2022/03/20 05:20:36;;;;;;;14.23;5.95;;;;;;;;;;20914066;28;20139;-61
2022/03/20 05:30:40;;;;;;;13.65;5.18;;;;;;;;;;20912529;28;20049;-62
2022/03/20 05:40:44;;;;;;;15.25;6.13;;;;;;;;;;20913526;28;20059;-60
2022/03/20 05:50:46;;;;;;;14.52;5.50;;;;;;;;;;20912792;28;20053;-60
2022/03/20 06:00:48;;;;;;;11.48;5.10;;;;;;;;;;20912006;28;20131;-61
2022/03/20 06:10:50;;;;;;;16.70;5.38;;;;;;;;;;20916202;28;20132;-62
2022/03/20 06:20:53;;;;;;;12.15;5.25;;;;;;;;;;20914896;28;20053;-62
2022/03/20 06:30:54;;;;;;;12.13;5.10;;;;;;;;;;20917970;28;20045;-60
2022/03/20 06:40:58;;;;;;;9.82;4.30;;;;;;;;;;20911608;28;20048;-60
2022/03/20 06:51:00;;;;;;;11.20;4.97;;;;;;;;;;20910323;28;20045;-61
2022/03/20 07:01:04;;;;;;;10.20;4.78;;;;;;;;;;20910429;28;20095;-61
2022/03/20 07:11:06;;;;;;;15.85;5.15;;;;;;;;;;20921335;28;20507;-62
2022/03/20 07:21:11;;;;;;;15.98;5.28;;;;;;;;;;20923560;28;20056;-61
2022/03/20 07:31:13;;;;;;;13.90;5.13;;;;;;;;;;20923669;28;20045;-61
2022/03/20 07:41:15;;;;;;;14.75;4.82;;;;;;;;;;20922677;28;20125;-62
2022/03/20 07:51:20;;;;;;;12.73;5.30;;;;;;;;;;20922782;28;20053;-57
2022/03/20 08:01:22;;;;;;;18.83;5.50;;;;;;;;;;20920855;28;20041;-58
2022/03/20 08:11:24;;;;;;;15.32;5.07;;;;;;;;;;20919663;28;20052;-56
2022/03/20 08:21:26;;;;;;;10.20;4.53;;;;;;;;;;20917745;28;20059;-58
2022/03/20 08:31:28;;;;;;;14.10;5.18;;;;;;;;;;20918491;28;20404;-58
2022/03/20 08:41:32;;;;;;;8.10;4.30;;;;;;;;;;20918371;28;20473;-60
2022/03/20 08:51:34;;;;;;;13.93;4.80;;;;;;;;;;20916271;28;20092;-60
2022/03/20 09:01:37;;;;;;;12.88;5.32;;;;;;;;;;20915614;28;20045;-60
2022/03/20 09:11:41;;;;;;;13.35;4.28;;;;;;;;;;20914890;28;20473;-57
2022/03/20 09:21:43;;;;;;;9.23;4.43;;;;;;;;;;20913721;28;20140;-57
2022/03/20 09:31:50;;;;;;;12.57;3.97;;;;;;;;;;20913095;28;20474;-56
2022/03/20 09:41:52;;;;;;;10.70;4.00;;;;;;;;;;20912746;28;20064;-59
2022/03/20 09:51:54;;;;;;;10.30;3.92;;;;;;;;;;20911068;28;20051;-58
2022/03/20 10:02:01;;;;;;;9.68;3.67;;;;;;;;;;20910080;28;20073;-58
2022/03/20 10:12:04;;;;;;;7.32;3.40;;;;;;;;;;20911277;28;20057;-59
2022/03/20 10:22:10;;;;;;;9.93;3.15;;;;;;;;;;20924068;28;20068;-58
2022/03/20 10:32:12;;;;;;;12.70;4.20;;;;;;;;;;20908635;28;20098;-66
2022/03/20 10:42:18;;;;;;;9.00;3.22;;;;;;;;;;20903051;28;20423;-56
2022/03/20 10:52:21;;;;;;;6.53;3.50;;;;;;;;;;20937999;28;20048;-58
2022/03/20 11:02:24;;;;;;;9.20;3.97;;;;;;;;;;21005780;28;20075;-59
2022/03/20 11:12:30;;;;;;;9.20;3.40;;;;;;;;;;21007402;28;20105;-59
2022/03/20 11:22:32;;;;;;;7.43;2.63;;;;;;;;;;21007223;28;20129;-61
2022/03/20 11:32:35;;;;;;;6.65;2.20;;;;;;;;;;21005140;28;20365;-59
2022/03/20 11:42:37;;;;;;;7.00;2.22;;;;;;;;;;21005909;28;20447;-58
2022/03/20 11:53:02;;;;;;;6.75;2.75;;;;;;;;;;21003645;28;20053;-57
2022/03/20 12:03:04;;;;;;;6.95;2.55;;;;;;;;;;20995773;28;20416;-56
2022/03/20 12:13:21;;;;;;;7.80;2.42;;;;;;;;;;21003853;28;20098;-58
2022/03/20 12:23:43;;;;;;;8.57;2.53;;;;;;;;;;21002246;28;20052;-57
2022/03/20 12:33:45;;;;;;;5.10;1.88;;;;;;;;;;21000863;28;20049;-57
2022/03/20 12:43:58;;;;;;;9.02;3.90;;;;;;;;;;20999838;28;20045;-55
2022/03/20 12:54:03;;;;;;;10.40;4.00;;;;;;;;;;20999391;28;20052;-56
2022/03/20 13:04:19;;;;;;;11.55;4.22;;;;;;;;;;20997279;28;20048;-53
2022/03/20 13:14:22;;;;;;;7.18;3.22;;;;;;;;;;20997491;28;20143;-58
2022/03/20 13:24:33;;;;;;;10.90;4.73;;;;;;;;;;20996428;28;20048;-63
2022/03/20 13:34:41;;;;;;;9.65;3.70;;;;;;;;;;20995626;28;20404;-56
2022/03/20 13:44:44;;;;;;;6.57;3.05;;;;;;;;;;20995902;28;20049;-56
2022/03/20 13:54:59;;;;;;;5.40;3.30;;;;;;;;;;20996021;28;20063;-60
2022/03/20 14:05:09;;;;;;;7.38;2.50;;;;;;;;;;20992920;28;20060;-57
2022/03/20 14:15:12;;;;;;;6.00;2.67;;;;;;;;;;20997986;28;20044;-57
2022/03/20 14:25:35;;;;;;;5.85;2.97;;;;;;;;;;21011002;28;20052;-60
2022/03/20 14:46:05;;;;;;;7.60;3.42;;;;;;;;;;21009416;28;20136;-56
2022/03/20 14:56:07;;;;;;;8.80;4.68;;;;;;;;;;21009489;28;20487;-59
2022/03/20 15:06:09;;;;;;;9.70;4.30;;;;;;;;;;21008805;28;20098;-56
2022/03/20 15:16:11;;;;;;;11.82;4.90;;;;;;;;;;21007576;28;20136;-56
2022/03/20 15:26:13;;;;;;;12.55;3.65;;;;;;;;;;21006583;28;20060;-56
2022/03/20 15:36:18;;;;;;;9.18;4.13;;;;;;;;;;20964612;28;20079;-58
2022/03/20 15:46:20;;;;;;;12.85;4.47;;;;;;;;;;20921618;28;20045;-57
2022/03/20 15:56:22;;;;;;;17.52;4.50;;;;;;;;;;20921749;28;20477;-59
2022/03/20 16:06:26;;;;;;;16.30;4.35;;;;;;;;;;20920478;28;20612;-57
2022/03/20 16:16:28;;;;;;;12.00;4.25;;;;;;;;;;20920360;28;20462;-56
2022/03/20 16:36:53;;;;;;;14.73;4.20;;;;;;;;;;20917324;28;20463;-59
2022/03/20 16:46:55;;;;;;;12.55;3.55;;;;;;;;;;20918256;28;20053;-58
2022/03/20 16:56:57;;;;;;;9.55;3.30;;;;;;;;;;20915880;28;20472;-57
2022/03/20 17:06:59;;;;;;;5.97;3.17;;;;;;;;;;20915447;28;20052;-57
2022/03/20 17:17:01;;;;;;;9.32;2.95;;;;;;;;;;20915075;28;20048;-56
2022/03/20 17:27:03;;;;;;;16.45;3.80;;;;;;;;;;20913375;28;20095;-58
2022/03/20 17:37:05;;;;;;;12.30;3.88;;;;;;;;;;20912543;28;20056;-56
2022/03/20 17:47:09;;;;;;;8.05;2.78;;;;;;;;;;20913542;28;20435;-57
2022/03/20 17:57:11;;;;;;;7.75;2.92;;;;;;;;;;20911519;28;20135;-55
2022/03/20 18:17:34;;;;;;;13.35;5.70;;;;;;;;;;20911966;28;20057;-55
2022/03/20 18:27:37;;;;;;;8.43;3.20;;;;;;;;;;20910400;28;20061;-60
2022/03/20 18:37:39;;;;;;;6.38;2.80;;;;;;;;;;20910618;28;20049;-54
2022/03/20 18:47:42;;;;;;;6.97;2.78;;;;;;;;;;20909770;28;20053;-56
2022/03/20 18:57:45;;;;;;;7.50;2.67;;;;;;;;;;20908700;28;20135;-54
2022/03/20 19:07:48;;;;;;;14.43;7.93;;;;;;;;;;20921954;28;20045;-53
2022/03/20 19:17:52;;;;;;;7.35;2.50;;;;;;;;;;20924990;28;20436;-56
2022/03/20 19:27:54;;;;;;;4.80;2.33;;;;;;;;;;20922910;28;20053;-59
2022/03/20 19:48:17;;;;;;;9.95;4.05;;;;;;;;;;20922181;28;20056;-63
2022/03/20 19:58:19;;;;;;;8.82;4.45;;;;;;;;;;20927277;28;20481;-63
2022/03/20 20:08:22;;;;;;;10.80;4.85;;;;;;;;;;20920995;28;20131;-64
2022/03/20 20:18:24;;;;;;;9.00;4.35;;;;;;;;;;20920375;28;20547;-59
2022/03/20 20:28:26;;;;;;;10.00;3.75;;;;;;;;;;20918781;28;20115;-61
2022/03/20 20:38:28;;;;;;;10.18;3.65;;;;;;;;;;20917403;28;20060;-58
2022/03/20 20:48:31;;;;;;;11.77;5.35;;;;;;;;;;20917196;28;20470;-59
2022/03/20 20:58:35;;;;;;;9.25;4.05;;;;;;;;;;20916254;28;20048;-57
2022/03/20 21:18:57;;;;;;;7.97;3.33;;;;;;;;;;20914709;28;20100;-59
2022/03/20 21:28:59;;;;;;;9.40;4.05;;;;;;;;;;20913498;28;20047;-59
2022/03/20 21:39:01;;;;;;;12.20;4.45;;;;;;;;;;20913106;28;20049;-59
2022/03/20 21:49:04;;;;;;;8.23;3.22;;;;;;;;;;20912873;28;20060;-61
2022/03/20 21:59:09;;;;;;;7.70;3.45;;;;;;;;;;20911059;28;20122;-60
2022/03/20 22:09:11;;;;;;;13.07;4.70;;;;;;;;;;20912850;28;20446;-56
2022/03/20 22:19:13;;;;;;;8.73;3.70;;;;;;;;;;20915194;28;20059;-61
2022/03/20 22:29:15;;;;;;;9.80;3.05;;;;;;;;;;20911462;28;20080;-63
2022/03/20 22:39:17;;;;;;;8.32;3.78;;;;;;;;;;20918470;28;20088;-57
2022/03/20 22:59:40;;;;;;;7.28;2.53;;;;;;;;;;20925884;28;20052;-64
2022/03/20 23:09:42;;;;;;;5.07;2.15;;;;;;;;;;20924831;28;20053;-61
2022/03/20 23:19:45;;;;;;;9.07;2.83;;;;;;;;;;20925045;28;20412;-62
2022/03/20 23:29:47;;;;;;;4.35;2.40;;;;;;;;;;20924968;28;20051;-59
2022/03/20 23:39:49;;;;;;;4.18;1.92;;;;;;;;;;20923768;28;20489;-60
2022/03/20 23:49:51;;;;;;;4.35;1.50;;;;;;;;;;20921598;28;20390;-61
2022/03/20 23:59:53;;;;;;;3.88;1.42;;;;;;;;;;20921333;28;20106;-61
